Time;durP1;ratioP1;P1;durP2;ratioP2;P2;SDS_P1;SDS_P2;PMS_P1;PMS_P2;Temp;Humidity;BMP_temperature;BMP_pressure;BME280_temperature;BME280_humidity;BME280_pressure;Samples;Min_cycle;Max_cycle;Signal;HPM_P1;HPM_P2
2022/06/28 00:02:09;;;;;;;28.20;16.55;;;13.40;99.90;;;;;;4995127;28;20045;-67
2022/06/28 00:04:34;;;;;;;28.67;17.00;;;13.40;99.90;;;;;;5011387;28;20470;-70
2022/06/28 00:07:00;;;;;;;27.88;17.20;;;13.50;99.90;;;;;;4995121;28;20053;-67
2022/06/28 00:09:26;;;;;;;29.25;16.70;;;13.40;99.90;;;;;;4994950;28;20490;-67
2022/06/28 00:11:52;;;;;;;27.48;16.75;;;13.40;99.90;;;;;;5011282;28;20080;-67
2022/06/28 00:17:03;;;;;;;26.60;15.98;;;13.30;99.90;;;;;;5011607;28;20054;-66
2022/06/28 00:19:29;;;;;;;29.00;17.02;;;13.30;99.90;;;;;;5011620;28;20088;-67
2022/06/28 00:21:55;;;;;;;25.00;16.15;;;13.30;99.90;;;;;;4994997;28;20057;-67
2022/06/28 00:24:21;;;;;;;24.63;15.98;;;13.30;99.90;;;;;;4991375;28;20054;-67
2022/06/28 00:26:48;;;;;;;23.40;15.02;;;13.20;99.90;;;;;;4976182;28;20620;-67
2022/06/28 00:29:14;;;;;;;20.00;13.40;;;13.20;99.90;;;;;;5011140;28;20050;-68
2022/06/28 00:31:41;;;;;;;22.02;14.27;;;13.10;99.90;;;;;;4994170;28;20371;-67
2022/06/28 00:34:08;;;;;;;39.50;13.50;;;13.10;99.90;;;;;;5011292;28;20077;-72
2022/06/28 00:36:34;;;;;;;22.50;13.93;;;13.00;99.90;;;;;;4995109;28;20042;-67
2022/06/28 00:39:00;;;;;;;23.83;15.07;;;12.90;99.90;;;;;;4994580;28;20479;-67
2022/06/28 00:41:26;;;;;;;24.80;15.10;;;12.80;99.90;;;;;;4994688;28;20053;-67
2022/06/28 00:43:53;;;;;;;27.45;16.00;;;12.80;99.90;;;;;;5010903;28;20649;-67
2022/06/28 00:46:19;;;;;;;26.60;15.77;;;12.80;99.90;;;;;;4994277;28;20390;-67
2022/06/28 00:48:46;;;;;;;91.93;16.35;;;12.80;99.90;;;;;;4994439;28;20454;-68
2022/06/28 00:51:12;;;;;;;32.72;16.20;;;12.70;99.90;;;;;;4994487;28;20053;-69
2022/06/28 00:53:37;;;;;;;26.95;16.38;;;12.80;99.90;;;;;;5011028;28;20383;-68
2022/06/28 00:56:03;;;;;;;30.83;17.65;;;12.70;99.90;;;;;;5010285;28;20132;-68
2022/06/28 00:58:29;;;;;;;159.25;21.38;;;12.70;99.90;;;;;;5010539;28;20048;-67
2022/06/28 01:00:55;;;;;;;25.88;17.83;;;12.80;99.90;;;;;;5010874;28;20054;-67
2022/06/28 01:03:22;;;;;;;29.60;18.70;;;12.80;99.90;;;;;;4994504;28;20107;-67
2022/06/28 01:05:50;;;;;;;27.48;17.75;;;12.80;99.90;;;;;;4994574;28;20042;-67
2022/06/28 01:08:17;;;;;;;23.63;15.32;;;12.80;99.90;;;;;;5013811;28;20132;-70
2022/06/28 01:10:43;;;;;;;28.30;13.75;;;12.80;99.90;;;;;;5013819;28;20489;-67
2022/06/28 01:13:09;;;;;;;21.90;14.65;;;12.80;99.90;;;;;;5009345;28;20041;-66
2022/06/28 01:15:36;;;;;;;32.00;17.40;;;12.70;99.90;;;;;;5014818;28;20045;-71
2022/06/28 01:18:04;;;;;;;29.30;18.00;;;12.70;99.90;;;;;;4997900;28;20053;-67
2022/06/28 01:20:30;;;;;;;55.95;17.80;;;12.70;99.90;;;;;;5014077;28;20052;-66
2022/06/28 01:22:56;;;;;;;31.42;18.08;;;12.70;99.90;;;;;;5013730;28;20053;-66
2022/06/28 01:25:23;;;;;;;24.27;14.55;;;12.70;99.90;;;;;;4980672;28;20450;-69
2022/06/28 01:27:51;;;;;;;25.48;16.98;;;12.70;99.90;;;;;;4981239;28;20041;-67
2022/06/28 01:30:17;;;;;;;23.77;15.40;;;12.70;99.90;;;;;;4997169;28;20382;-68
2022/06/28 01:32:43;;;;;;;21.65;15.38;;;12.60;99.90;;;;;;5013896;28;20041;-68
2022/06/28 01:35:09;;;;;;;25.33;17.25;;;12.60;99.90;;;;;;5013332;28;20037;-67
2022/06/28 01:37:36;;;;;;;22.73;16.35;;;12.60;99.90;;;;;;5031204;28;20060;-70
2022/06/28 01:40:04;;;;;;;26.42;17.95;;;12.50;99.90;;;;;;5013536;28;20045;-69
2022/06/28 01:42:31;;;;;;;31.17;18.02;;;12.60;99.90;;;;;;5014635;28;20041;-67
2022/06/28 01:44:58;;;;;;;28.58;18.00;;;12.50;99.90;;;;;;5017190;28;20038;-67
2022/06/28 01:47:26;;;;;;;28.63;17.15;;;12.60;99.90;;;;;;5017550;28;20045;-67
2022/06/28 01:49:53;;;;;;;28.83;18.50;;;12.60;99.90;;;;;;5000844;28;20057;-67
2022/06/28 01:52:18;;;;;;;26.58;17.67;;;12.60;99.90;;;;;;5016931;28;20041;-68
2022/06/28 01:54:44;;;;;;;22.35;16.85;;;12.60;99.90;;;;;;5016972;28;20431;-67
2022/06/28 01:57:10;;;;;;;21.25;15.23;;;12.60;99.90;;;;;;5000899;28;21091;-71
2022/06/28 01:59:38;;;;;;;18.88;14.63;;;12.50;99.90;;;;;;5017458;28;20482;-68
2022/06/28 02:02:04;;;;;;;24.80;14.52;;;12.40;99.90;;;;;;5017381;28;20037;-67
2022/06/28 02:04:30;;;;;;;19.33;13.55;;;12.30;99.90;;;;;;5016853;28;20209;-67
2022/06/28 02:06:58;;;;;;;19.88;14.63;;;12.30;99.90;;;;;;5000532;28;20110;-67
2022/06/28 02:09:24;;;;;;;21.20;13.77;;;12.30;99.90;;;;;;5016778;28;20049;-68
2022/06/28 02:11:53;;;;;;;23.45;16.60;;;12.20;99.90;;;;;;5018265;28;20060;-66
2022/06/28 02:14:19;;;;;;;27.20;17.75;;;12.20;99.90;;;;;;5012068;28;20045;-67
2022/06/28 02:16:46;;;;;;;28.45;18.10;;;12.20;99.90;;;;;;5016460;28;20049;-68
2022/06/28 02:19:12;;;;;;;26.85;17.65;;;12.40;99.90;;;;;;5000404;28;20088;-67
2022/06/28 02:21:43;;;;;;;29.33;17.52;;;12.20;99.90;;;;;;5000368;28;20049;-67
2022/06/28 02:24:10;;;;;;;24.25;16.48;;;12.20;99.90;;;;;;5000160;28;20076;-67
2022/06/28 02:26:35;;;;;;;28.35;18.45;;;12.20;99.90;;;;;;5016847;28;20049;-70
2022/06/28 02:29:04;;;;;;;25.52;17.48;;;12.20;99.90;;;;;;5016494;28;20049;-71
2022/06/28 02:31:30;;;;;;;25.02;16.30;;;12.20;99.90;;;;;;5016564;28;20137;-68
2022/06/28 02:33:56;;;;;;;33.05;19.35;;;12.20;99.90;;;;;;5000217;28;20048;-70
2022/06/28 02:41:48;;;;;;;;;;;12.20;99.90;;;;;;5016971;28;20060;-67
2022/06/28 02:44:17;;;;;;;20.83;14.90;;;12.20;99.90;;;;;;5015955;28;20312;-69
2022/06/28 02:46:44;;;;;;;23.90;15.80;;;12.10;99.90;;;;;;5016192;28;20389;-67
2022/06/28 02:49:10;;;;;;;22.38;14.48;;;12.00;99.90;;;;;;5015935;28;20050;-67
2022/06/28 02:51:35;;;;;;;25.05;17.23;;;12.00;99.90;;;;;;4999715;28;20041;-70
2022/06/28 02:54:01;;;;;;;28.10;17.77;;;12.00;99.90;;;;;;5015504;28;20052;-67
2022/06/28 02:56:27;;;;;;;25.77;17.05;;;12.00;99.90;;;;;;5016131;28;20037;-67
2022/06/28 02:58:52;;;;;;;26.65;16.83;;;12.00;99.90;;;;;;4999551;28;20038;-67
2022/06/28 03:01:18;;;;;;;28.05;17.67;;;11.90;99.90;;;;;;5015606;28;20124;-67
2022/06/28 03:03:44;;;;;;;22.65;15.23;;;11.90;99.90;;;;;;5015566;28;20045;-67
2022/06/28 03:06:09;;;;;;;19.08;14.27;;;11.90;99.90;;;;;;5014947;28;20490;-68
2022/06/28 03:08:35;;;;;;;22.48;16.38;;;11.80;99.90;;;;;;4996248;28;20058;-71
2022/06/28 03:11:01;;;;;;;28.42;17.70;;;11.90;99.90;;;;;;4999464;28;20127;-67
2022/06/28 03:13:27;;;;;;;25.48;16.30;;;11.90;99.90;;;;;;5029314;28;20037;-67
2022/06/28 03:15:53;;;;;;;21.55;15.80;;;11.80;99.90;;;;;;4999219;28;20051;-67
2022/06/28 03:18:19;;;;;;;27.27;17.58;;;11.90;99.90;;;;;;5015643;28;20037;-69
2022/06/28 03:20:45;;;;;;;28.08;18.05;;;11.90;99.90;;;;;;5015897;28;20052;-67
2022/06/28 03:23:11;;;;;;;25.17;16.50;;;11.90;99.90;;;;;;5015701;28;20049;-67
2022/06/28 03:25:37;;;;;;;23.80;17.30;;;11.90;99.90;;;;;;5015341;28;20387;-66
2022/06/28 03:28:04;;;;;;;25.50;15.75;;;12.00;99.90;;;;;;5015496;28;20045;-67
2022/06/28 03:30:31;;;;;;;23.73;15.68;;;12.00;99.90;;;;;;5015388;28;20049;-67
2022/06/28 03:32:57;;;;;;;24.75;16.52;;;11.90;99.90;;;;;;4999149;28;20053;-67
2022/06/28 03:35:23;;;;;;;25.52;17.20;;;11.90;99.90;;;;;;5015125;28;20095;-67
2022/06/28 03:37:48;;;;;;;27.35;17.15;;;11.90;99.90;;;;;;4999285;28;20050;-67
2022/06/28 03:40:14;;;;;;;25.10;16.05;;;11.90;99.90;;;;;;5015361;28;20060;-67
2022/06/28 03:42:40;;;;;;;25.27;17.13;;;11.90;99.90;;;;;;4998955;28;20041;-68
2022/06/28 03:45:06;;;;;;;25.83;15.40;;;11.90;99.90;;;;;;5015077;28;20048;-67
2022/06/28 03:47:32;;;;;;;25.10;16.48;;;11.90;99.90;;;;;;4999220;28;20191;-66
2022/06/28 03:49:58;;;;;;;28.95;17.73;;;11.90;99.90;;;;;;5015283;28;20530;-69
2022/06/28 03:52:28;;;;;;;26.27;16.98;;;11.90;99.90;;;;;;5015292;28;20037;-67
2022/06/28 03:54:58;;;;;;;24.23;16.30;;;12.00;99.90;;;;;;5015051;28;20041;-66
2022/06/28 03:57:25;;;;;;;25.40;16.83;;;11.90;99.90;;;;;;5015064;28;20045;-68
2022/06/28 03:59:51;;;;;;;27.20;17.30;;;11.90;99.90;;;;;;4998661;28;20061;-68
2022/06/28 04:02:17;;;;;;;28.73;18.42;;;12.00;99.90;;;;;;4998770;28;20045;-67
2022/06/28 04:04:43;;;;;;;30.55;18.83;;;12.00;99.90;;;;;;5014719;28;20084;-67
2022/06/28 04:07:08;;;;;;;29.73;18.88;;;12.10;99.90;;;;;;5013584;28;20084;-68
2022/06/28 04:09:34;;;;;;;32.38;17.67;;;12.20;99.90;;;;;;4998358;28;20529;-68
2022/06/28 04:12:00;;;;;;;31.90;18.38;;;12.20;99.90;;;;;;5017283;28;20044;-68
2022/06/28 04:14:26;;;;;;;28.13;18.33;;;12.30;99.90;;;;;;5024924;28;20042;-67
2022/06/28 04:16:52;;;;;;;30.17;18.50;;;12.30;99.90;;;;;;4998949;28;20132;-67
2022/06/28 04:19:17;;;;;;;26.98;16.92;;;12.40;99.90;;;;;;4998399;28;20083;-69
2022/06/28 04:21:43;;;;;;;28.00;17.15;;;12.50;99.90;;;;;;5014525;28;20103;-67
2022/06/28 04:24:09;;;;;;;26.98;18.38;;;12.50;99.90;;;;;;4998133;28;20045;-68
2022/06/28 04:26:35;;;;;;;27.83;17.48;;;12.60;99.90;;;;;;4998162;28;20092;-73
2022/06/28 04:29:01;;;;;;;28.80;17.45;;;12.70;99.90;;;;;;5014176;28;20077;-70
2022/06/28 04:31:28;;;;;;;28.02;17.65;;;12.80;99.90;;;;;;5014632;28;20045;-67
2022/06/28 04:33:53;;;;;;;25.13;16.13;;;12.90;99.90;;;;;;4997875;28;20401;-66
2022/06/28 04:36:19;;;;;;;24.98;16.92;;;13.00;99.90;;;;;;4998193;28;20056;-67
2022/06/28 04:38:45;;;;;;;25.40;17.02;;;13.00;99.90;;;;;;5014057;28;20429;-67
2022/06/28 04:41:11;;;;;;;32.78;16.90;;;13.00;99.90;;;;;;5013773;28;20049;-73
2022/06/28 04:43:37;;;;;;;24.67;16.95;;;13.10;99.90;;;;;;4981846;28;20049;-67
2022/06/28 04:46:02;;;;;;;26.77;17.10;;;13.10;99.90;;;;;;5014214;28;20358;-68
2022/06/28 04:48:28;;;;;;;22.65;16.25;;;13.10;99.90;;;;;;5014054;28;20099;-68
2022/06/28 04:50:54;;;;;;;25.40;16.23;;;13.10;99.90;;;;;;4981610;28;20044;-67
2022/06/28 04:53:19;;;;;;;26.38;17.23;;;13.10;99.90;;;;;;4981581;28;20048;-68
2022/06/28 04:55:45;;;;;;;24.70;16.80;;;13.10;99.90;;;;;;5013853;28;20037;-68
2022/06/28 04:58:11;;;;;;;25.38;17.17;;;13.10;99.90;;;;;;4997661;28;20425;-67
2022/06/28 05:00:37;;;;;;;26.77;16.88;;;13.20;99.90;;;;;;5014228;28;20049;-67
2022/06/28 05:03:02;;;;;;;25.30;16.73;;;13.20;99.90;;;;;;4998114;28;20037;-67
2022/06/28 05:05:28;;;;;;;25.15;16.25;;;13.30;99.90;;;;;;4997361;28;20056;-68
2022/06/28 05:07:54;;;;;;;28.88;16.85;;;13.40;99.90;;;;;;4997058;28;20150;-68
2022/06/28 05:10:20;;;;;;;25.45;17.50;;;13.50;99.90;;;;;;5013642;28;20127;-67
2022/06/28 05:12:45;;;;;;;25.20;17.17;;;13.60;99.90;;;;;;5022556;28;20041;-67
2022/06/28 05:15:11;;;;;;;21.92;15.77;;;13.70;99.90;;;;;;5017876;28;20042;-67
2022/06/28 05:17:37;;;;;;;25.65;17.05;;;13.70;99.90;;;;;;5014834;28;20049;-67
2022/06/28 05:20:06;;;;;;;27.20;17.13;;;13.80;99.90;;;;;;5018067;28;20049;-68
2022/06/28 05:22:32;;;;;;;20.38;15.23;;;13.90;99.90;;;;;;4986120;28;20119;-67
2022/06/28 05:24:57;;;;;;;26.95;16.33;;;14.10;99.90;;;;;;5001094;28;20037;-68
2022/06/28 05:27:23;;;;;;;26.23;16.48;;;14.10;99.90;;;;;;5001823;28;20125;-68
2022/06/28 05:29:49;;;;;;;20.52;15.30;;;14.20;99.90;;;;;;5001624;28;20041;-68
2022/06/28 05:32:14;;;;;;;21.40;14.88;;;14.30;99.90;;;;;;5001561;28;20045;-68
2022/06/28 05:34:40;;;;;;;23.88;14.90;;;14.40;99.90;;;;;;5017318;28;20475;-67
2022/06/28 05:37:07;;;;;;;21.80;15.10;;;14.60;99.90;;;;;;5017710;28;20486;-68
2022/06/28 05:39:33;;;;;;;21.50;14.35;;;14.60;99.90;;;;;;5017384;28;20049;-67
2022/06/28 05:41:58;;;;;;;26.63;14.40;;;14.70;99.90;;;;;;5035109;28;20041;-66
2022/06/28 05:44:24;;;;;;;20.17;13.63;;;14.70;99.90;;;;;;5000824;28;20514;-67
2022/06/28 05:46:51;;;;;;;19.83;13.43;;;14.80;99.90;;;;;;4985192;28;20041;-67
2022/06/28 05:49:17;;;;;;;18.95;12.82;;;15.00;99.90;;;;;;5017118;28;20049;-67
2022/06/28 05:51:43;;;;;;;19.67;13.73;;;15.00;99.90;;;;;;5017460;28;20051;-67
2022/06/28 05:54:09;;;;;;;20.15;12.80;;;15.10;99.90;;;;;;5016912;28;20056;-67
2022/06/28 05:56:35;;;;;;;18.85;13.07;;;15.20;99.90;;;;;;5017072;28;20045;-71
2022/06/28 05:59:01;;;;;;;21.23;11.80;;;15.30;99.90;;;;;;4984978;28;20124;-67
2022/06/28 06:01:30;;;;;;;16.90;11.68;;;15.40;99.90;;;;;;5017097;28;20199;-67
2022/06/28 06:03:57;;;;;;;21.42;12.57;;;15.60;99.90;;;;;;5000459;28;20085;-68
2022/06/28 06:06:24;;;;;;;17.13;11.20;;;15.70;99.90;;;;;;5013701;28;20057;-68
2022/06/28 06:08:51;;;;;;;20.45;11.93;;;15.80;99.90;;;;;;5013192;28;20081;-68
2022/06/28 06:11:17;;;;;;;16.80;10.43;;;15.90;99.90;;;;;;5013871;28;20482;-68
2022/06/28 06:13:43;;;;;;;17.02;10.65;;;16.00;99.90;;;;;;5010161;28;20184;-68
2022/06/28 06:16:09;;;;;;;16.27;11.15;;;16.10;99.90;;;;;;4997429;28;20052;-67
2022/06/28 06:18:34;;;;;;;20.45;11.35;;;16.20;99.90;;;;;;4981190;28;20129;-67
2022/06/28 06:21:00;;;;;;;20.77;11.93;;;16.30;99.90;;;;;;5013744;28;20042;-67
2022/06/28 06:23:26;;;;;;;17.65;12.27;;;16.40;99.90;;;;;;4997007;28;20065;-67
2022/06/28 06:25:52;;;;;;;16.23;11.10;;;16.50;99.90;;;;;;5013066;28;20046;-67
2022/06/28 06:28:18;;;;;;;15.05;10.68;;;16.60;99.90;;;;;;5013266;28;20060;-67
2022/06/28 06:30:43;;;;;;;16.80;11.85;;;16.70;99.90;;;;;;5012611;28;20042;-67
2022/06/28 06:33:09;;;;;;;16.90;11.23;;;16.80;99.90;;;;;;5013500;28;20421;-67
2022/06/28 06:35:35;;;;;;;16.75;10.82;;;16.90;99.90;;;;;;5013045;28;20108;-70
2022/06/28 06:38:00;;;;;;;18.58;10.40;;;16.90;99.90;;;;;;4997036;28;20068;-67
2022/06/28 06:40:30;;;;;;;15.85;8.18;;;17.00;99.90;;;;;;4980879;28;20217;-67
2022/06/28 06:42:57;;;;;;;13.65;8.80;;;17.00;99.90;;;;;;5013065;28;20053;-67
2022/06/28 06:45:23;;;;;;;16.90;9.05;;;17.10;99.90;;;;;;5012463;28;20386;-67
2022/06/28 06:47:49;;;;;;;15.77;9.73;;;17.10;99.90;;;;;;4996573;28;20050;-68
2022/06/28 06:50:15;;;;;;;19.63;9.73;;;17.20;99.90;;;;;;4996636;28;20052;-67
2022/06/28 06:52:41;;;;;;;15.52;10.18;;;17.30;99.90;;;;;;5013026;28;20038;-67
2022/06/28 06:55:08;;;;;;;14.00;10.30;;;17.40;99.90;;;;;;5012837;28;20045;-69
2022/06/28 06:57:34;;;;;;;13.65;10.15;;;17.50;99.90;;;;;;5013243;28;20046;-67
2022/06/28 06:59:59;;;;;;;17.88;10.95;;;17.60;99.90;;;;;;4996736;28;20046;-68
2022/06/28 07:02:25;;;;;;;16.38;11.27;;;17.70;99.90;;;;;;5012928;28;20045;-67
2022/06/28 07:04:51;;;;;;;18.27;12.05;;;17.70;99.90;;;;;;4980032;28;20367;-67
2022/06/28 07:07:17;;;;;;;13.23;8.98;;;17.90;99.90;;;;;;5012043;28;20076;-67
2022/06/28 07:09:43;;;;;;;15.52;10.35;;;17.90;99.90;;;;;;5012711;28;20214;-67
2022/06/28 07:12:09;;;;;;;20.10;10.65;;;17.80;99.90;;;;;;4999908;28;20497;-68
2022/06/28 07:14:35;;;;;;;13.35;10.10;;;17.60;99.90;;;;;;5021847;28;20072;-71
2022/06/28 07:17:01;;;;;;;16.15;10.88;;;17.70;99.90;;;;;;5012693;28;20045;-67
2022/06/28 07:19:26;;;;;;;16.02;10.43;;;17.90;99.90;;;;;;5012732;28;20042;-68
2022/06/28 07:21:52;;;;;;;18.02;10.27;;;18.10;99.90;;;;;;5012248;28;20385;-67
2022/06/28 07:24:18;;;;;;;9.93;7.82;;;18.20;99.90;;;;;;5012247;28;20459;-67
2022/06/28 07:26:44;;;;;;;13.20;8.02;;;18.20;99.90;;;;;;4996122;28;20050;-68
2022/06/28 07:29:10;;;;;;;15.00;9.38;;;18.40;99.90;;;;;;5012127;28;20168;-68
2022/06/28 07:31:36;;;;;;;11.77;8.90;;;18.50;99.90;;;;;;4995939;28;20379;-67
2022/06/28 07:34:02;;;;;;;13.48;8.80;;;18.70;99.90;;;;;;5012003;28;20056;-67
2022/06/28 07:36:28;;;;;;;12.20;7.80;;;18.70;99.90;;;;;;5012145;28;20045;-70
2022/06/28 07:38:54;;;;;;;12.75;7.22;;;18.70;99.90;;;;;;4995892;28;20052;-67
2022/06/28 07:41:23;;;;;;;11.40;5.70;;;18.50;99.90;;;;;;4995626;28;20042;-69
2022/06/28 07:43:53;;;;;;;9.80;5.38;;;18.40;99.90;;;;;;4995500;28;20051;-68
2022/06/28 07:46:20;;;;;;;13.02;6.18;;;18.40;99.90;;;;;;5012013;28;20045;-67
2022/06/28 07:48:46;;;;;;;11.68;5.13;;;18.50;99.90;;;;;;5011812;28;20046;-67
2022/06/28 07:53:57;;;;;;;10.52;5.03;;;19.20;99.90;;;;;;5011549;28;20069;-67
2022/06/28 07:56:23;;;;;;;6.10;3.90;;;18.90;99.90;;;;;;5012036;28;20037;-68
2022/06/28 07:58:49;;;;;;;10.63;3.90;;;18.70;99.90;;;;;;5011917;28;20430;-67
2022/06/28 08:01:15;;;;;;;7.45;3.70;;;18.50;99.90;;;;;;5011556;28;20057;-67
2022/06/28 08:03:41;;;;;;;10.07;3.50;;;18.40;99.90;;;;;;5011382;28;20041;-67
2022/06/28 08:06:06;;;;;;;6.00;2.88;;;18.50;99.90;;;;;;5012472;28;20081;-67
2022/06/28 08:08:32;;;;;;;6.78;3.42;;;18.80;99.90;;;;;;5014582;28;20523;-67
2022/06/28 08:10:58;;;;;;;8.68;3.80;;;19.20;99.90;;;;;;4998712;28;20046;-67
2022/06/28 08:13:24;;;;;;;8.02;3.40;;;19.50;99.90;;;;;;5010985;28;20423;-69
2022/06/28 08:15:49;;;;;;;8.38;4.10;;;19.80;99.90;;;;;;4998445;28;20489;-67
2022/06/28 08:18:16;;;;;;;6.50;3.20;;;20.00;99.90;;;;;;5014517;28;20076;-66
2022/06/28 08:20:42;;;;;;;7.07;3.17;;;20.30;99.90;;;;;;5014639;28;20041;-67
2022/06/28 08:23:08;;;;;;;7.32;3.47;;;20.50;99.90;;;;;;5014702;28;20065;-67
2022/06/28 08:25:34;;;;;;;6.90;3.30;;;20.30;99.90;;;;;;5014524;28;20041;-68
2022/06/28 08:28:00;;;;;;;11.00;2.90;;;20.00;99.90;;;;;;5014498;28;20041;-67
2022/06/28 08:30:27;;;;;;;6.70;3.00;;;20.00;99.90;;;;;;4998061;28;20049;-68
2022/06/28 08:32:53;;;;;;;5.30;2.10;;;19.90;99.90;;;;;;5014587;28;20486;-67
2022/06/28 08:35:20;;;;;;;6.30;2.45;;;19.80;99.90;;;;;;5014102;28;20072;-68
2022/06/28 08:37:46;;;;;;;9.07;2.40;;;19.50;99.90;;;;;;5014346;28;20049;-68
2022/06/28 08:40:11;;;;;;;5.25;2.30;;;19.20;99.90;;;;;;5013943;28;20037;-68
2022/06/28 08:42:42;;;;;;;6.18;2.65;;;19.30;99.90;;;;;;5014037;28;20042;-67
2022/06/28 08:45:09;;;;;;;6.23;2.40;;;19.50;99.90;;;;;;5013728;28;20111;-68
2022/06/28 08:47:37;;;;;;;7.13;2.03;;;19.70;99.90;;;;;;5014482;28;20485;-68
2022/06/28 08:50:13;;;;;;;7.32;2.65;;;20.10;99.90;;;;;;5014270;28;20508;-69
2022/06/28 08:52:41;;;;;;;7.88;2.88;;;20.10;99.90;;;;;;5013693;28;20490;-69
2022/06/28 08:55:09;;;;;;;5.10;2.28;;;19.90;99.90;;;;;;5013775;28;20489;-68
2022/06/28 08:57:35;;;;;;;4.88;2.30;;;19.90;99.90;;;;;;4997662;28;20041;-71
2022/06/28 09:00:05;;;;;;;3.55;2.22;;;20.00;99.90;;;;;;5014136;28;20041;-68
2022/06/28 09:02:31;;;;;;;3.05;2.00;;;20.10;99.90;;;;;;5014337;28;20076;-67
2022/06/28 09:04:59;;;;;;;4.22;2.40;;;20.20;99.90;;;;;;5013668;28;20512;-68
2022/06/28 09:07:25;;;;;;;4.50;2.20;;;20.30;99.90;;;;;;4997197;28;20360;-68
2022/06/28 09:09:51;;;;;;;6.65;2.13;;;20.40;99.90;;;;;;5013699;28;20099;-68
2022/06/28 09:12:17;;;;;;;4.78;1.40;;;20.70;99.90;;;;;;5018437;28;20045;-69
2022/06/28 09:14:43;;;;;;;5.22;1.65;;;20.80;99.90;;;;;;5005533;28;20053;-67
2022/06/28 09:17:18;;;;;;;7.40;2.42;;;20.90;99.90;;;;;;5013946;28;20195;-67
2022/06/28 09:19:44;;;;;;;5.53;1.60;;;20.80;99.90;;;;;;4997623;28;20095;-68
2022/06/28 09:22:26;;;;;;;5.18;1.45;;;20.90;99.90;;;;;;5014202;28;20037;-67
2022/06/28 09:24:52;;;;;;;7.55;1.85;;;21.20;99.90;;;;;;5013508;28;20034;-67
2022/06/28 09:27:34;;;;;;;7.00;1.90;;;21.50;99.90;;;;;;5013827;28;20490;-67
2022/06/28 09:30:02;;;;;;;5.50;1.67;;;21.80;99.90;;;;;;5013837;28;20437;-67
2022/06/28 09:32:33;;;;;;;7.53;1.98;;;21.60;99.90;;;;;;4997406;28;20047;-69
2022/06/28 09:35:17;;;;;;;5.32;1.65;;;21.30;99.90;;;;;;5013574;28;20041;-67
2022/06/28 09:37:47;;;;;;;3.30;1.70;;;21.10;99.90;;;;;;5013819;28;20486;-67
2022/06/28 09:40:32;;;;;;;6.23;2.20;;;21.20;99.90;;;;;;5013717;28;20044;-67
2022/06/28 09:43:09;;;;;;;4.20;1.73;;;21.30;99.90;;;;;;5013822;28;20073;-67
2022/06/28 09:45:37;;;;;;;3.78;1.95;;;21.60;99.90;;;;;;4996975;28;20344;-70
2022/06/28 09:48:03;;;;;;;4.30;1.80;;;21.90;99.90;;;;;;5013758;28;20045;-68
2022/06/28 09:50:34;;;;;;;4.07;1.80;;;21.90;99.90;;;;;;5013501;28;20037;-67
2022/06/28 09:53:01;;;;;;;6.43;1.73;;;21.90;99.90;;;;;;5013719;28;20145;-68
2022/06/28 09:55:30;;;;;;;5.40;2.00;;;21.90;99.90;;;;;;5013134;28;20044;-67
2022/06/28 09:57:57;;;;;;;5.40;1.73;;;22.20;99.90;;;;;;5013368;28;20060;-68
2022/06/28 10:00:24;;;;;;;3.13;1.70;;;22.30;99.90;;;;;;4978161;28;20545;-68
2022/06/28 10:02:53;;;;;;;3.90;1.50;;;22.40;99.90;;;;;;5030153;28;20050;-68
2022/06/28 10:05:19;;;;;;;6.65;1.98;;;22.30;99.90;;;;;;4998601;28;20441;-68
2022/06/28 10:07:46;;;;;;;4.60;1.58;;;22.40;99.90;;;;;;5016862;28;20059;-67
2022/06/28 10:10:13;;;;;;;6.70;1.75;;;22.40;99.90;;;;;;5016880;28;20132;-68
2022/06/28 10:15:32;;;;;;;3.80;1.73;;;22.50;99.90;;;;;;5005586;28;20390;-69
2022/06/28 10:18:02;;;;;;;5.07;1.98;;;22.40;99.90;;;;;;5000932;28;20049;-69
2022/06/28 10:20:33;;;;;;;6.00;1.70;;;22.00;99.90;;;;;;5000319;28;20490;-67
2022/06/28 10:23:17;;;;;;;;;;;21.90;99.90;;;;;;5017191;28;20053;-69
2022/06/28 10:26:08;;;;;;;4.82;2.00;;;21.80;99.90;;;;;;5016902;28;19960;-67
2022/06/28 10:28:42;;;;;;;3.30;1.70;;;21.90;99.90;;;;;;4996972;28;20402;-68
2022/06/28 10:31:23;;;;;;;5.85;1.67;;;22.40;99.90;;;;;;4997081;28;20414;-68
2022/06/28 10:33:50;;;;;;;3.85;1.27;;;22.60;99.90;;;;;;4988667;28;20513;-67
2022/06/28 10:36:17;;;;;;;7.38;1.67;;;22.70;99.90;;;;;;5016732;28;20117;-67
2022/06/28 10:39:07;;;;;;;6.68;1.75;;;22.60;99.90;;;;;;5016354;28;20041;-67
2022/06/28 10:41:46;;;;;;;8.27;1.88;;;22.30;99.90;;;;;;5016541;28;20045;-67
2022/06/28 10:44:26;;;;;;;4.65;1.50;;;22.50;98.70;;;;;;4999896;28;20041;-67
2022/06/28 10:47:01;;;;;;;5.25;1.83;;;22.80;99.90;;;;;;5016562;28;20045;-68
2022/06/28 10:49:42;;;;;;;5.00;1.73;;;22.80;99.90;;;;;;5016072;28;20042;-68
2022/06/28 10:52:26;;;;;;;;;;;22.50;99.90;;;;;;5002472;28;20041;-67
2022/06/28 10:54:52;;;;;;;4.72;1.60;;;22.30;99.90;;;;;;5016086;28;19921;-67
2022/06/28 10:57:35;;;;;;;4.60;1.58;;;22.60;99.90;;;;;;5016352;28;20088;-68
2022/06/28 11:00:22;;;;;;;3.60;1.80;;;22.80;99.90;;;;;;5016352;28;20490;-67
2022/06/28 11:02:51;;;;;;;4.18;1.80;;;23.10;99.90;;;;;;4999746;28;20110;-67
2022/06/28 11:05:19;;;;;;;4.85;1.50;;;22.90;99.90;;;;;;5015782;28;20047;-67
2022/06/28 11:07:59;;;;;;;5.40;1.73;;;23.00;99.90;;;;;;5015571;28;20468;-68
2022/06/28 11:10:26;;;;;;;6.60;2.07;;;23.00;99.90;;;;;;5015615;28;20080;-67
2022/06/28 11:12:52;;;;;;;3.75;1.52;;;23.30;99.90;;;;;;5025325;28;20102;-70
2022/06/28 11:15:32;;;;;;;6.28;1.70;;;23.30;99.90;;;;;;5002585;28;20537;-68
2022/06/28 11:17:59;;;;;;;4.97;1.50;;;23.20;99.90;;;;;;5015780;28;20080;-67
2022/06/28 11:20:25;;;;;;;5.15;2.03;;;23.00;99.90;;;;;;5015898;28;20045;-68
2022/06/28 11:22:52;;;;;;;5.63;1.73;;;23.00;99.90;;;;;;5015823;28;20053;-68
2022/06/28 11:25:19;;;;;;;5.65;1.70;;;22.90;99.70;;;;;;4999022;28;20037;-68
2022/06/28 11:27:52;;;;;;;5.78;1.67;;;23.00;99.90;;;;;;5015596;28;20042;-67
2022/06/28 11:30:19;;;;;;;8.65;1.85;;;23.10;99.90;;;;;;4983874;28;20103;-68
2022/06/28 11:32:50;;;;;;;7.40;1.70;;;23.60;99.90;;;;;;4999659;28;20049;-67
2022/06/28 11:35:30;;;;;;;6.43;1.67;;;23.80;99.90;;;;;;5015184;28;20148;-68
2022/06/28 11:38:05;;;;;;;4.85;1.38;;;24.40;98.50;;;;;;5015372;28;20053;-67
2022/06/28 11:40:49;;;;;;;4.70;1.88;;;24.50;99.10;;;;;;5015562;28;20048;-68
2022/06/28 11:43:18;;;;;;;4.72;1.50;;;24.30;95.30;;;;;;5015026;28;20489;-67
2022/06/28 11:45:49;;;;;;;6.43;1.58;;;24.00;98.30;;;;;;5015021;28;20498;-67
2022/06/28 11:48:21;;;;;;;6.18;1.80;;;23.90;97.30;;;;;;4998697;28;20095;-67
2022/06/28 11:50:51;;;;;;;4.05;1.55;;;23.60;95.70;;;;;;5015139;28;20124;-67
2022/06/28 11:53:18;;;;;;;6.30;1.80;;;23.50;97.00;;;;;;5014818;28;20076;-67
2022/06/28 11:55:50;;;;;;;3.30;1.40;;;23.40;96.70;;;;;;5014995;28;20038;-68
2022/06/28 11:58:26;;;;;;;6.18;1.58;;;23.20;95.20;;;;;;5015005;28;20042;-68
2022/06/28 12:01:12;;;;;;;4.70;1.60;;;23.20;96.20;;;;;;4998648;28;20293;-68
2022/06/28 12:03:41;;;;;;;3.30;1.45;;;23.70;94.60;;;;;;4998403;28;20547;-67
2022/06/28 12:06:09;;;;;;;4.18;1.42;;;24.00;93.80;;;;;;5014958;28;20045;-68
2022/06/28 12:08:51;;;;;;;6.07;1.50;;;24.20;93.70;;;;;;5014684;28;20069;-68
2022/06/28 12:11:29;;;;;;;4.72;1.38;;;24.80;93.60;;;;;;5014625;28;20493;-68
2022/06/28 12:14:13;;;;;;;3.17;1.20;;;24.80;91.20;;;;;;5027758;28;20111;-67
2022/06/28 12:16:50;;;;;;;5.43;1.25;;;25.30;90.40;;;;;;5014934;28;20505;-67
2022/06/28 12:19:21;;;;;;;3.13;1.30;;;25.60;85.60;;;;;;5014677;28;20072;-67
2022/06/28 12:22:01;;;;;;;7.00;1.73;;;25.20;88.80;;;;;;5014610;28;20268;-67
2022/06/28 12:24:53;;;;;;;4.78;1.20;;;25.40;89.30;;;;;;5014481;28;20088;-67
2022/06/28 12:27:27;;;;;;;3.05;1.20;;;25.20;83.70;;;;;;4978682;28;20034;-68
2022/06/28 12:29:57;;;;;;;3.83;1.08;;;24.90;84.20;;;;;;5010849;28;20053;-67
2022/06/28 12:32:23;;;;;;;4.22;1.60;;;24.90;86.70;;;;;;5014685;28;20076;-67
2022/06/28 12:35:00;;;;;;;3.25;1.25;;;24.60;84.20;;;;;;5014215;28;20042;-67
2022/06/28 12:37:26;;;;;;;4.43;1.40;;;25.20;83.70;;;;;;5014521;28;20099;-67
2022/06/28 12:39:52;;;;;;;3.63;1.38;;;25.70;86.60;;;;;;5014057;28;20045;-69
2022/06/28 12:42:18;;;;;;;4.13;1.40;;;25.50;85.10;;;;;;4978484;28;20049;-67
2022/06/28 12:44:43;;;;;;;5.20;1.30;;;25.10;82.00;;;;;;5012228;28;20041;-67
2022/06/28 12:47:10;;;;;;;2.78;1.20;;;25.10;82.90;;;;;;5014484;28;20536;-68
2022/06/28 12:49:36;;;;;;;3.33;1.17;;;25.30;81.20;;;;;;5013919;28;20049;-69
2022/06/28 12:52:02;;;;;;;3.20;1.13;;;25.20;79.90;;;;;;4998201;28;20617;-67
2022/06/28 12:54:27;;;;;;;4.63;1.10;;;25.20;77.60;;;;;;5013881;28;20390;-66